Time,TemperatureF,DewpointF,PressureIn,WindDirection,WindDirectionDegrees,WindSpeedMPH,WindSpeedGustMPH,Humidity,HourlyPrecipIn,Conditions,Clouds,dailyrainin,SolarRadiationWatts/m^2,SoftwareType,DateUTC
2013-03-24 00:01:00,23.0,19.0,-100.00,North,-999,-999.0,4.0,83,0.00,,,-99.99,0.000000,,2013-03-24 06:01:00,
2013-03-24 00:12:00,23.0,19.0,-100.00,North,-999,-999.0,4.0,85,0.00,,,-99.99,0.000000,,2013-03-24 06:12:00,
2013-03-24 00:32:00,23.0,19.0,-100.00,North,-999,-999.0,5.0,85,0.00,,,-99.99,0.000000,,2013-03-24 06:32:00,
2013-03-24 00:42:00,24.0,19.0,-100.00,North,-999,-999.0,5.0,83,0.00,,,-99.99,0.000000,,2013-03-24 06:42:00,
2013-03-24 00:50:00,22.0,19.0,-100.00,North,-999,-999.0,4.0,86,0.00,,,-99.99,0.000000,,2013-03-24 06:50:00,
2013-03-24 00:51:00,24.0,20.0,-100.00,North,-999,-999.0,7.0,84,0.00,,,-99.99,0.000000,,2013-03-24 06:51:00,
2013-03-24 01:02:00,24.0,19.0,-100.00,North,-999,-999.0,7.0,82,0.00,,,-99.99,0.000000,,2013-03-24 07:02:00,
2013-03-24 01:11:00,22.0,19.0,-100.00,North,-999,-999.0,4.0,86,0.00,,,-99.99,0.000000,,2013-03-24 07:11:00,
2013-03-24 01:21:00,22.0,19.0,-100.00,North,-999,-999.0,4.0,86,0.00,,,-99.99,0.000000,,2013-03-24 07:21:00,
2013-03-24 01:32:00,22.0,19.0,-100.00,North,-999,-999.0,4.0,86,0.00,,,-99.99,0.000000,,2013-03-24 07:32:00,
2013-03-24 01:42:00,22.0,19.0,-100.00,North,-999,-999.0,4.0,86,0.00,,,-99.99,0.000000,,2013-03-24 07:42:00,
2013-03-24 02:22:00,21.0,19.0,-100.00,North,-999,-999.0,3.0,91,0.00,,,-99.99,0.000000,,2013-03-24 08:22:00,
2013-03-24 02:32:00,21.0,19.0,-100.00,North,-999,-999.0,4.0,91,0.00,,,-99.99,0.000000,,2013-03-24 08:32:00,
2013-03-24 02:42:00,22.0,19.0,-100.00,North,-999,-999.0,4.0,87,0.00,,,-99.99,0.000000,,2013-03-24 08:42:00,
2013-03-24 02:52:00,23.0,19.0,-100.00,North,-999,-999.0,5.0,86,0.00,,,-99.99,0.000000,,2013-03-24 08:52:00,
2013-03-24 03:02:00,22.0,18.0,-100.00,North,-999,-999.0,4.0,86,0.00,,,-99.99,0.000000,,2013-03-24 09:02:00,
2013-03-24 03:12:00,22.0,19.0,-100.00,North,-999,-999.0,3.0,87,0.00,,,-99.99,0.000000,,2013-03-24 09:12:00,
2013-03-24 03:21:00,22.0,18.0,-100.00,North,-999,-999.0,3.0,86,0.00,,,-99.99,0.000000,,2013-03-24 09:21:00,
2013-03-24 03:32:00,22.0,18.0,-100.00,North,-999,-999.0,0.0,86,0.00,,,-99.99,0.000000,,2013-03-24 09:32:00,
2013-03-24 03:42:00,21.0,18.0,-100.00,North,-999,-999.0,2.0,87,0.00,,,-99.99,0.000000,,2013-03-24 09:42:00,
2013-03-24 03:52:00,21.0,17.0,-100.00,North,-999,-999.0,4.0,83,0.00,,,-99.99,0.000000,,2013-03-24 09:52:00,
2013-03-24 04:02:00,20.0,16.0,-100.00,North,-999,-999.0,5.0,86,0.00,,,-99.99,0.000000,,2013-03-24 10:02:00,
2013-03-24 04:12:00,19.0,16.0,-100.00,North,-999,-999.0,5.0,87,0.00,,,-99.99,0.000000,,2013-03-24 10:12:00,
2013-03-24 04:22:00,18.0,16.0,-100.00,North,-999,-999.0,4.0,90,0.00,,,-99.99,0.000000,,2013-03-24 10:22:00,
2013-03-24 04:32:00,19.0,17.0,-100.00,North,-999,-999.0,4.0,93,0.00,,,-99.99,0.000000,,2013-03-24 10:32:00,
2013-03-24 04:42:00,20.0,18.0,-100.00,North,-999,-999.0,4.0,92,0.00,,,-99.99,0.000000,,2013-03-24 10:42:00,
2013-03-24 04:52:00,20.0,16.0,-100.00,North,-999,-999.0,4.0,87,0.00,,,-99.99,0.000000,,2013-03-24 10:52:00,
2013-03-24 05:02:00,19.0,16.0,-100.00,North,-999,-999.0,2.0,88,0.00,,,-99.99,0.000000,,2013-03-24 11:02:00,
2013-03-24 05:11:00,21.0,18.0,-100.00,North,-999,-999.0,4.0,88,0.00,,,-99.99,0.000000,,2013-03-24 11:11:00,
2013-03-24 05:21:00,21.0,18.0,-100.00,North,-999,-999.0,2.0,87,0.00,,,-99.99,0.000000,,2013-03-24 11:21:00,
2013-03-24 05:32:00,20.0,17.0,-100.00,North,-999,-999.0,2.0,88,0.00,,,-99.99,0.000000,,2013-03-24 11:32:00,
2013-03-24 05:42:00,20.0,17.0,-100.00,North,-999,-999.0,4.0,89,0.00,,,-99.99,0.000000,,2013-03-24 11:42:00,
2013-03-24 05:50:00,19.0,13.0,-100.00,North,-999,-999.0,4.0,80,0.00,,,-99.99,0.000000,,2013-03-24 11:50:00,
2013-03-24 05:51:00,20.0,17.0,-100.00,North,-999,-999.0,3.0,88,0.00,,,-99.99,0.000000,,2013-03-24 11:51:00,
2013-03-24 06:02:00,19.0,15.0,-100.00,North,-999,-999.0,3.0,84,0.00,,,-99.99,0.000000,,2013-03-24 12:02:00,
2013-03-24 06:12:00,19.0,13.0,-100.00,North,-999,-999.0,4.0,80,0.00,,,-99.99,0.000000,,2013-03-24 12:12:00,
2013-03-24 06:21:00,19.0,13.0,-100.00,North,-999,-999.0,4.0,80,0.00,,,-99.99,0.000000,,2013-03-24 12:21:00,
2013-03-24 06:32:00,19.0,13.0,-100.00,North,-999,-999.0,4.0,80,0.00,,,-99.99,0.000000,,2013-03-24 12:32:00,
2013-03-24 06:41:00,19.0,13.0,-100.00,North,-999,-999.0,4.0,80,0.00,,,-99.99,0.000000,,2013-03-24 12:41:00,
2013-03-24 07:23:00,19.0,16.0,-100.00,North,-999,-999.0,5.0,88,0.00,,,-99.99,0.000000,,2013-03-24 13:23:00,
2013-03-24 07:32:00,20.0,16.0,-100.00,North,-999,-999.0,4.0,87,0.00,,,-99.99,1.000000,,2013-03-24 13:32:00,
2013-03-24 07:42:00,20.0,15.0,-100.00,North,-999,-999.0,6.0,83,0.00,,,-99.99,3.000000,,2013-03-24 13:42:00,
2013-03-24 07:52:00,20.0,15.0,-100.00,North,-999,-999.0,6.0,81,0.00,,,-99.99,8.000000,,2013-03-24 13:52:00,
2013-03-24 08:02:00,20.0,16.0,-100.00,North,-999,-999.0,5.0,82,0.00,,,-99.99,20.000000,,2013-03-24 14:02:00,
2013-03-24 08:12:00,20.0,16.0,-100.00,North,-999,-999.0,3.0,82,0.00,,,-99.99,32.000000,,2013-03-24 14:12:00,
2013-03-24 08:21:00,20.0,16.0,-100.00,North,-999,-999.0,2.0,84,0.00,,,-99.99,52.000000,,2013-03-24 14:21:00,
2013-03-24 08:32:00,21.0,17.0,-100.00,North,-999,-999.0,3.0,85,0.00,,,-99.99,76.000000,,2013-03-24 14:32:00,
2013-03-24 08:42:00,22.0,17.0,-100.00,North,-999,-999.0,3.0,82,0.00,,,-99.99,85.000000,,2013-03-24 14:42:00,
2013-03-24 08:51:00,22.0,17.0,-100.00,North,-999,-999.0,3.0,81,0.00,,,-99.99,83.000000,,2013-03-24 14:51:00,
2013-03-24 09:01:00,23.0,18.0,-100.00,North,-999,-999.0,6.0,79,0.00,,,-99.99,111.000000,,2013-03-24 15:01:00,
2013-03-24 09:12:00,22.0,18.0,-100.00,North,-999,-999.0,5.0,82,0.00,,,-99.99,113.000000,,2013-03-24 15:12:00,
2013-03-24 09:22:00,23.0,18.0,-100.00,North,-999,-999.0,3.0,82,0.00,,,-99.99,245.000000,,2013-03-24 15:22:00,
2013-03-24 09:32:00,25.0,18.0,-100.00,North,-999,-999.0,8.0,74,0.00,,,-99.99,250.000000,,2013-03-24 15:32:00,
2013-03-24 09:43:00,26.0,17.0,-100.00,North,-999,-999.0,9.0,69,0.00,,,-99.99,393.000000,,2013-03-24 15:43:00,
2013-03-24 09:52:00,27.0,19.0,-100.00,North,-999,-999.0,8.0,71,0.00,,,-99.99,459.000000,,2013-03-24 15:52:00,
2013-03-24 10:02:00,27.0,17.0,-100.00,North,-999,-999.0,11.0,65,0.00,,,-99.99,476.000000,,2013-03-24 16:02:00,
2013-03-24 10:12:00,28.0,18.0,-100.00,North,-999,-999.0,11.0,65,0.00,,,-99.99,515.000000,,2013-03-24 16:12:00,
2013-03-24 10:22:00,29.0,18.0,-100.00,North,-999,-999.0,12.0,65,0.00,,,-99.99,551.000000,,2013-03-24 16:22:00,
2013-03-24 10:32:00,30.0,20.0,-100.00,North,-999,-999.0,12.0,65,0.00,,,-99.99,593.000000,,2013-03-24 16:32:00,
2013-03-24 10:42:00,31.0,20.0,-100.00,North,-999,-999.0,6.0,63,0.00,,,-99.99,632.000000,,2013-03-24 16:42:00,
2013-03-24 10:50:00,33.0,19.0,-100.00,North,-999,-999.0,6.0,55,0.00,,,-99.99,761.000000,,2013-03-24 16:50:00,
2013-03-24 10:52:00,31.0,20.0,-100.00,North,-999,-999.0,6.0,63,0.00,,,-99.99,669.000000,,2013-03-24 16:52:00,
2013-03-24 11:02:00,31.0,19.0,-100.00,North,-999,-999.0,7.0,59,0.00,,,-99.99,713.000000,,2013-03-24 17:02:00,
2013-03-24 11:12:00,33.0,19.0,-100.00,North,-999,-999.0,6.0,55,0.00,,,-99.99,761.000000,,2013-03-24 17:12:00,
2013-03-24 11:22:00,33.0,19.0,-100.00,North,-999,-999.0,6.0,55,0.00,,,-99.99,761.000000,,2013-03-24 17:22:00,
2013-03-24 11:32:00,33.0,19.0,-100.00,North,-999,-999.0,6.0,55,0.00,,,-99.99,761.000000,,2013-03-24 17:32:00,
2013-03-24 11:42:00,33.0,19.0,-100.00,North,-999,-999.0,6.0,55,0.00,,,-99.99,761.000000,,2013-03-24 17:42:00,
2013-03-24 12:22:00,36.0,12.0,-100.00,North,-999,-999.0,9.0,36,0.00,,,-99.99,931.000000,,2013-03-24 18:22:00,
2013-03-24 12:33:00,37.0,11.0,-100.00,North,-999,-999.0,10.0,34,0.00,,,-99.99,921.000000,,2013-03-24 18:33:00,
2013-03-24 12:43:00,36.0,7.0,-100.00,North,-999,-999.0,11.0,28,0.00,,,-99.99,959.000000,,2013-03-24 18:43:00,
2013-03-24 12:52:00,37.0,9.0,-100.00,North,-999,-999.0,11.0,31,0.00,,,-99.99,774.000000,,2013-03-24 18:52:00,
2013-03-24 13:02:00,37.0,10.0,-100.00,North,-999,-999.0,12.0,32,0.00,,,-99.99,986.000000,,2013-03-24 19:02:00,
2013-03-24 13:11:00,37.0,11.0,-100.00,North,-999,-999.0,13.0,33,0.00,,,-99.99,754.000000,,2013-03-24 19:11:00,
2013-03-24 13:21:00,38.0,11.0,-100.00,North,-999,-999.0,12.0,32,0.00,,,-99.99,957.000000,,2013-03-24 19:21:00,
2013-03-24 13:31:00,39.0,12.0,-100.00,North,-999,-999.0,12.0,33,0.00,,,-99.99,1041.000000,,2013-03-24 19:31:00,
2013-03-24 13:42:00,38.0,12.0,-100.00,North,-999,-999.0,12.0,33,0.00,,,-99.99,917.000000,,2013-03-24 19:42:00,
2013-03-24 13:52:00,39.0,13.0,-100.00,North,-999,-999.0,14.0,34,0.00,,,-99.99,912.000000,,2013-03-24 19:52:00,
2013-03-24 14:02:00,38.0,14.0,-100.00,North,-999,-999.0,14.0,36,0.00,,,-99.99,922.000000,,2013-03-24 20:02:00,
2013-03-24 14:12:00,39.0,14.0,-100.00,North,-999,-999.0,11.0,36,0.00,,,-99.99,927.000000,,2013-03-24 20:12:00,
2013-03-24 14:21:00,40.0,13.0,-100.00,North,-999,-999.0,10.0,33,0.00,,,-99.99,997.000000,,2013-03-24 20:21:00,
2013-03-24 14:32:00,38.0,11.0,-100.00,North,-999,-999.0,11.0,32,0.00,,,-99.99,364.000000,,2013-03-24 20:32:00,
2013-03-24 14:42:00,38.0,10.0,-100.00,North,-999,-999.0,10.0,31,0.00,,,-99.99,511.000000,,2013-03-24 20:42:00,
2013-03-24 14:52:00,39.0,10.0,-100.00,North,-999,-999.0,12.0,30,0.00,,,-99.99,531.000000,,2013-03-24 20:52:00,
2013-03-24 15:02:00,40.0,12.0,-100.00,North,-999,-999.0,10.0,31,0.00,,,-99.99,1036.000000,,2013-03-24 21:02:00,
2013-03-24 15:11:00,39.0,11.0,-100.00,North,-999,-999.0,14.0,30,0.00,,,-99.99,1056.000000,,2013-03-24 21:11:00,
2013-03-24 15:22:00,41.0,12.0,-100.00,North,-999,-999.0,13.0,30,0.00,,,-99.99,959.000000,,2013-03-24 21:22:00,
2013-03-24 15:32:00,41.0,10.0,-100.00,North,-999,-999.0,17.0,28,0.00,,,-99.99,1021.000000,,2013-03-24 21:32:00,
2013-03-24 15:43:00,41.0,12.0,-100.00,North,-999,-999.0,13.0,30,0.00,,,-99.99,921.000000,,2013-03-24 21:43:00,
2013-03-24 15:50:00,41.0,12.0,-100.00,North,-999,-999.0,15.0,30,0.00,,,-99.99,851.000000,,2013-03-24 21:50:00,
2013-03-24 15:52:00,41.0,14.0,-100.00,North,-999,-999.0,17.0,33,0.00,,,-99.99,918.000000,,2013-03-24 21:52:00,
2013-03-24 16:02:00,41.0,12.0,-100.00,North,-999,-999.0,19.0,30,0.00,,,-99.99,571.000000,,2013-03-24 22:02:00,
2013-03-24 16:12:00,41.0,12.0,-100.00,North,-999,-999.0,15.0,30,0.00,,,-99.99,851.000000,,2013-03-24 22:12:00,
2013-03-24 16:22:00,41.0,12.0,-100.00,North,-999,-999.0,15.0,30,0.00,,,-99.99,851.000000,,2013-03-24 22:22:00,
2013-03-24 16:32:00,41.0,12.0,-100.00,North,-999,-999.0,15.0,30,0.00,,,-99.99,851.000000,,2013-03-24 22:32:00,
2013-03-24 16:42:00,41.0,12.0,-100.00,North,-999,-999.0,15.0,30,0.00,,,-99.99,851.000000,,2013-03-24 22:42:00,
2013-03-24 17:23:00,39.0,13.0,-100.00,North,-999,-999.0,17.0,33,0.00,,,-99.99,617.000000,,2013-03-24 23:23:00,
2013-03-24 17:32:00,39.0,12.0,-100.00,North,-999,-999.0,17.0,32,0.00,,,-99.99,141.000000,,2013-03-24 23:32:00,
2013-03-24 17:42:00,40.0,13.0,-100.00,North,-999,-999.0,15.0,32,0.00,,,-99.99,521.000000,,2013-03-24 23:42:00,
2013-03-24 17:52:00,40.0,12.0,-100.00,North,-999,-999.0,16.0,31,0.00,,,-99.99,481.000000,,2013-03-24 23:52:00,
2013-03-24 18:02:00,40.0,12.0,-100.00,North,-999,-999.0,14.0,31,0.00,,,-99.99,447.000000,,2013-03-25 00:02:00,
2013-03-24 18:11:00,40.0,12.0,-100.00,North,-999,-999.0,14.0,31,0.00,,,-99.99,382.000000,,2013-03-25 00:11:00,
2013-03-24 18:22:00,39.0,12.0,-100.00,North,-999,-999.0,16.0,32,0.00,,,-99.99,358.000000,,2013-03-25 00:22:00,
2013-03-24 18:32:00,39.0,12.0,-100.00,North,-999,-999.0,16.0,32,0.00,,,-99.99,358.000000,,2013-03-25 00:32:00,
2013-03-24 18:42:00,39.0,11.0,-100.00,North,-999,-999.0,13.0,31,0.00,,,-99.99,262.000000,,2013-03-25 00:42:00,
2013-03-24 18:52:00,38.0,11.0,-100.00,North,-999,-999.0,11.0,33,0.00,,,-99.99,77.000000,,2013-03-25 00:52:00,
2013-03-24 19:01:00,38.0,11.0,-100.00,North,-999,-999.0,10.0,32,0.00,,,-99.99,208.000000,,2013-03-25 01:01:00,
2013-03-24 19:12:00,38.0,11.0,-100.00,North,-999,-999.0,10.0,33,0.00,,,-99.99,182.000000,,2013-03-25 01:12:00,
2013-03-24 19:21:00,36.0,10.0,-100.00,North,-999,-999.0,11.0,33,0.00,,,-99.99,64.000000,,2013-03-25 01:21:00,
2013-03-24 19:32:00,36.0,11.0,-100.00,North,-999,-999.0,11.0,35,0.00,,,-99.99,66.000000,,2013-03-25 01:32:00,
2013-03-24 19:42:00,36.0,11.0,-100.00,North,-999,-999.0,11.0,35,0.00,,,-99.99,37.000000,,2013-03-25 01:42:00,
2013-03-24 19:52:00,35.0,10.0,-100.00,North,-999,-999.0,11.0,36,0.00,,,-99.99,16.000000,,2013-03-25 01:52:00,
2013-03-24 20:01:00,34.0,10.0,-100.00,North,-999,-999.0,10.0,37,0.00,,,-99.99,9.000000,,2013-03-25 02:01:00,
2013-03-24 20:11:00,33.0,10.0,-100.00,North,-999,-999.0,10.0,38,0.00,,,-99.99,2.000000,,2013-03-25 02:11:00,
2013-03-24 20:21:00,32.0,11.0,-100.00,North,-999,-999.0,6.0,41,0.00,,,-99.99,0.000000,,2013-03-25 02:21:00,
2013-03-24 20:32:00,30.0,12.0,-100.00,North,-999,-999.0,3.0,45,0.00,,,-99.99,0.000000,,2013-03-25 02:32:00,
2013-03-24 20:42:00,30.0,11.0,-100.00,North,-999,-999.0,2.0,45,0.00,,,-99.99,0.000000,,2013-03-25 02:42:00,
2013-03-24 20:50:00,31.0,12.0,-100.00,North,-999,-999.0,5.0,44,0.00,,,-99.99,0.000000,,2013-03-25 02:50:00,
2013-03-24 20:51:00,31.0,11.0,-100.00,North,-999,-999.0,3.0,44,0.00,,,-99.99,0.000000,,2013-03-25 02:51:00,
2013-03-24 21:01:00,31.0,10.0,-100.00,North,-999,-999.0,4.0,41,0.00,,,-99.99,0.000000,,2013-03-25 03:01:00,
2013-03-24 21:12:00,31.0,12.0,-100.00,North,-999,-999.0,5.0,44,0.00,,,-99.99,0.000000,,2013-03-25 03:12:00,
2013-03-24 21:21:00,31.0,12.0,-100.00,North,-999,-999.0,5.0,44,0.00,,,-99.99,0.000000,,2013-03-25 03:21:00,
2013-03-24 21:32:00,31.0,12.0,-100.00,North,-999,-999.0,5.0,44,0.00,,,-99.99,0.000000,,2013-03-25 03:32:00,
2013-03-24 21:42:00,31.0,12.0,-100.00,North,-999,-999.0,5.0,44,0.00,,,-99.99,0.000000,,2013-03-25 03:42:00,
2013-03-24 22:23:00,28.0,10.0,-100.00,North,-999,-999.0,5.0,47,0.00,,,-99.99,0.000000,,2013-03-25 04:23:00,
2013-03-24 22:33:00,27.0,11.0,-100.00,North,-999,-999.0,5.0,50,0.00,,,-99.99,0.000000,,2013-03-25 04:33:00,
2013-03-24 22:43:00,27.0,11.0,-100.00,North,-999,-999.0,6.0,50,0.00,,,-99.99,0.000000,,2013-03-25 04:43:00,
2013-03-24 22:52:00,26.0,10.0,-100.00,North,-999,-999.0,6.0,50,0.00,,,-99.99,0.000000,,2013-03-25 04:52:00,
2013-03-24 23:02:00,26.0,10.0,-100.00,North,-999,-999.0,5.0,51,0.00,,,-99.99,0.000000,,2013-03-25 05:02:00,
2013-03-24 23:12:00,26.0,10.0,-100.00,North,-999,-999.0,5.0,50,0.00,,,-99.99,0.000000,,2013-03-25 05:12:00,
2013-03-24 23:21:00,25.0,11.0,-100.00,North,-999,-999.0,4.0,54,0.00,,,-99.99,0.000000,,2013-03-25 05:21:00,
2013-03-24 23:32:00,25.0,11.0,-100.00,North,-999,-999.0,5.0,55,0.00,,,-99.99,0.000000,,2013-03-25 05:32:00,
2013-03-24 23:42:00,25.0,11.0,-100.00,North,-999,-999.0,5.0,54,0.00,,,-99.99,0.000000,,2013-03-25 05:42:00,
2013-03-24 23:51:00,25.0,11.0,-100.00,North,-999,-999.0,3.0,56,0.00,,,-99.99,0.000000,,2013-03-25 05:51:00,